EDT,Max TemperatureF,Mean TemperatureF,Min TemperatureF,Max Dew PointF,MeanDew PointF,Min DewpointF,Max Humidity, Mean Humidity, Min Humidity, Max Sea Level PressureIn, Mean Sea Level PressureIn, Min Sea Level PressureIn, Max VisibilityMiles, Mean VisibilityMiles, Min VisibilityMiles, Max Wind SpeedMPH, Mean Wind SpeedMPH, Max Gust SpeedMPH,PrecipitationIn, CloudCover, Events, WindDirDegrees
2012-10-1,64,54,46,54,50,44,90,77,62,29.95,29.90,29.82,10,9,6,13,6,,0.00,2,Rain,77
2012-10-2,64,60,55,63,58,51,100,94,78,29.87,29.83,29.80,9,5,2,10,5,,0.45,8,Rain,57
2012-10-3,73,67,62,64,59,52,100,82,55,30.12,29.98,29.86,10,7,1,14,5,23,0.25,6,Rain,194
2012-10-4,73,66,61,59,53,51,75,66,54,30.14,30.10,30.06,10,10,10,16,8,21,0.00,1,,196
2012-10-5,68,58,48,58,52,43,94,83,59,30.06,30.01,29.97,10,8,3,24,13,31,0.61,7,Rain,257
2012-10-6,53,49,45,45,41,35,90,73,57,30.10,30.01,29.93,10,9,3,23,17,31,0.39,7,Rain,268
2012-10-7,48,44,42,43,40,35,93,80,68,30.15,30.10,30.05,10,8,2,14,8,20,0.62,8,Rain,235
2012-10-8,53,47,41,36,34,32,79,65,47,30.25,30.20,30.15,10,10,10,14,9,,0.00,4,,189
2012-10-9,59,49,39,38,36,35,86,63,41,30.19,30.09,29.94,10,10,8,13,10,22,0.00,0,,173
2012-10-10,53,50,46,46,40,30,93,71,50,30.17,29.95,29.83,10,9,2,31,17,43,0.17,7,Rain,244
2012-10-11,57,48,39,34,31,29,65,50,37,30.26,30.18,30.10,10,10,10,20,15,31,0.00,2,,226
2012-10-12,53,48,41,46,36,30,82,62,47,30.44,30.30,30.12,10,10,10,20,14,31,0.00,4,Rain,1
2012-10-13,64,50,37,53,35,27,73,60,43,30.42,30.23,29.96,10,10,9,20,10,31,0.01,3,Rain,158
2012-10-14,75,68,62,60,57,56,84,71,53,29.94,29.78,29.55,10,10,4,22,15,33,0.12,4,Rain,182
2012-10-15,63,57,51,54,45,40,83,74,66,29.91,29.77,29.56,10,10,5,31,22,45,0.04,8,Rain,265
2012-10-16,55,52,48,44,39,37,74,64,59,29.99,29.91,29.83,10,10,10,17,10,22,0.00,4,,284
2012-10-17,73,62,51,49,43,39,63,53,38,29.84,29.75,29.65,10,10,10,17,12,26,0.00,4,,160
2012-10-18,64,58,52,47,45,41,80,62,48,29.75,29.63,29.52,10,10,10,21,13,33,0.04,3,Rain,162
2012-10-19,62,55,46,45,41,33,86,68,35,29.72,29.65,29.57,10,10,10,20,12,25,0.06,5,Rain,171
2012-10-20,53,49,46,44,43,42,86,77,69,29.92,29.74,29.64,10,10,10,18,13,24,0.00,8,Rain,223
2012-10-21,57,50,44,48,43,40,86,75,62,30.12,30.07,29.94,10,10,10,13,9,,0.00,1,,229
2012-10-22,73,60,46,53,46,39,77,60,42,30.12,30.07,30.00,10,10,10,12,8,,0.00,1,,161
2012-10-23,70,63,60,60,57,52,90,79,60,30.03,29.99,29.96,10,8,2,14,8,23,0.23,7,Rain,197
2012-10-24,73,66,60,60,57,53,93,73,55,30.07,30.03,29.99,10,10,7,14,6,,0.10,4,Rain,157
2012-10-25,80,70,61,53,49,43,70,49,27,30.04,29.99,29.91,10,10,10,15,10,28,0.00,1,,171
2012-10-26,70,57,48,54,48,45,96,86,51,30.18,30.12,29.93,10,6,2,21,12,29,0.48,7,Rain,1
2012-10-27,50,48,46,46,45,43,93,87,76,30.14,30.09,30.06,10,8,2,22,18,31,0.53,8,Rain,23
2012-10-28,48,45,42,43,41,39,93,85,77,30.11,30.04,29.98,10,7,3,28,22,37,0.86,8,Rain,19
2012-10-29,45,44,42,43,40,39,93,86,81,29.97,29.75,29.41,10,6,2,47,27,66,0.69,8,Rain,359
2012-10-30,48,48,48,48,46,45,100,92,87,29.36,29.28,29.20,10,8,2,31,25,38,0.09,8,Rain,341
2012-10-31,48,45,42,45,41,39,100,91,87,29.62,29.53,29.36,10,6,2,25,22,34,0.14,8,Rain,277